sensor_id;sensor_type;location;lat;lon;timestamp;P1;durP1;ratioP1;P2;durP2;ratioP2
6832;SDS011;3454;42.654;23.378;2023-04-03T00:01:26;3.87;;;1.40;;
6832;SDS011;3454;42.654;23.378;2023-04-03T00:03:52;2.10;;;1.50;;
6832;SDS011;3454;42.654;23.378;2023-04-03T00:06:17;1.87;;;1.50;;
6832;SDS011;3454;42.654;23.378;2023-04-03T00:08:43;1.93;;;1.43;;
6832;SDS011;3454;42.654;23.378;2023-04-03T00:11:09;2.27;;;1.70;;
6832;SDS011;3454;42.654;23.378;2023-04-03T00:13:35;1.83;;;1.60;;
6832;SDS011;3454;42.654;23.378;2023-04-03T00:16:01;2.53;;;1.50;;
6832;SDS011;3454;42.654;23.378;2023-04-03T00:18:28;2.00;;;1.43;;
6832;SDS011;3454;42.654;23.378;2023-04-03T00:20:54;2.70;;;1.43;;
6832;SDS011;3454;42.654;23.378;2023-04-03T00:23:20;1.77;;;1.33;;
6832;SDS011;3454;42.654;23.378;2023-04-03T00:25:45;1.87;;;1.27;;
6832;SDS011;3454;42.654;23.378;2023-04-03T00:28:10;3.13;;;1.20;;
6832;SDS011;3454;42.654;23.378;2023-04-03T00:30:36;1.93;;;1.00;;
6832;SDS011;3454;42.654;23.378;2023-04-03T00:33:02;2.07;;;1.50;;
6832;SDS011;3454;42.654;23.378;2023-04-03T00:35:28;1.67;;;1.47;;
6832;SDS011;3454;42.654;23.378;2023-04-03T00:37:54;1.87;;;1.43;;
6832;SDS011;3454;42.654;23.378;2023-04-03T00:40:21;1.30;;;1.10;;
6832;SDS011;3454;42.654;23.378;2023-04-03T00:42:49;3.10;;;1.60;;
6832;SDS011;3454;42.654;23.378;2023-04-03T00:45:26;2.10;;;1.40;;
6832;SDS011;3454;42.654;23.378;2023-04-03T00:48:01;2.47;;;1.40;;
6832;SDS011;3454;42.654;23.378;2023-04-03T00:50:31;2.40;;;1.63;;
6832;SDS011;3454;42.654;23.378;2023-04-03T00:53:00;1.30;;;1.03;;
6832;SDS011;3454;42.654;23.378;2023-04-03T00:55:26;4.40;;;1.67;;
6832;SDS011;3454;42.654;23.378;2023-04-03T00:57:52;1.60;;;1.40;;
6832;SDS011;3454;42.654;23.378;2023-04-03T01:00:20;2.10;;;1.43;;
6832;SDS011;3454;42.654;23.378;2023-04-03T01:02:48;2.30;;;1.40;;
6832;SDS011;3454;42.654;23.378;2023-04-03T01:05:15;2.27;;;1.20;;
6832;SDS011;3454;42.654;23.378;2023-04-03T01:07:41;1.87;;;1.33;;
6832;SDS011;3454;42.654;23.378;2023-04-03T01:10:08;2.57;;;1.43;;
6832;SDS011;3454;42.654;23.378;2023-04-03T01:12:37;2.97;;;1.83;;
6832;SDS011;3454;42.654;23.378;2023-04-03T01:15:06;3.87;;;2.07;;
6832;SDS011;3454;42.654;23.378;2023-04-03T01:23:06;1.73;;;1.40;;
6832;SDS011;3454;42.654;23.378;2023-04-03T01:25:45;2.70;;;1.87;;
6832;SDS011;3454;42.654;23.378;2023-04-03T01:28:16;2.07;;;1.53;;
6832;SDS011;3454;42.654;23.378;2023-04-03T01:30:55;2.77;;;1.57;;
6832;SDS011;3454;42.654;23.378;2023-04-03T01:33:40;2.50;;;2.20;;
6832;SDS011;3454;42.654;23.378;2023-04-03T01:36:06;4.53;;;1.67;;
6832;SDS011;3454;42.654;23.378;2023-04-03T01:38:33;3.17;;;1.47;;
6832;SDS011;3454;42.654;23.378;2023-04-03T01:40:58;7.70;;;2.03;;
6832;SDS011;3454;42.654;23.378;2023-04-03T01:43:24;2.93;;;1.80;;
6832;SDS011;3454;42.654;23.378;2023-04-03T01:45:50;3.93;;;1.50;;
6832;SDS011;3454;42.654;23.378;2023-04-03T01:48:17;2.63;;;1.40;;
6832;SDS011;3454;42.654;23.378;2023-04-03T01:50:42;5.20;;;1.93;;
6832;SDS011;3454;42.654;23.378;2023-04-03T01:53:08;3.53;;;1.40;;
6832;SDS011;3454;42.654;23.378;2023-04-03T01:55:34;2.27;;;1.50;;
6832;SDS011;3454;42.654;23.378;2023-04-03T01:57:59;4.00;;;1.93;;
6832;SDS011;3454;42.654;23.378;2023-04-03T02:00:25;3.43;;;2.33;;
6832;SDS011;3454;42.654;23.378;2023-04-03T02:02:51;4.00;;;1.80;;
6832;SDS011;3454;42.654;23.378;2023-04-03T02:05:17;3.77;;;1.53;;
6832;SDS011;3454;42.654;23.378;2023-04-03T02:07:42;3.67;;;1.60;;
6832;SDS011;3454;42.654;23.378;2023-04-03T02:10:08;4.10;;;1.90;;
6832;SDS011;3454;42.654;23.378;2023-04-03T02:12:33;2.33;;;1.43;;
6832;SDS011;3454;42.654;23.378;2023-04-03T02:14:59;3.13;;;1.57;;
6832;SDS011;3454;42.654;23.378;2023-04-03T02:17:25;3.30;;;1.60;;
6832;SDS011;3454;42.654;23.378;2023-04-03T02:19:51;2.17;;;1.50;;
6832;SDS011;3454;42.654;23.378;2023-04-03T02:22:16;3.07;;;2.07;;
6832;SDS011;3454;42.654;23.378;2023-04-03T02:24:42;2.67;;;1.97;;
6832;SDS011;3454;42.654;23.378;2023-04-03T02:27:07;3.20;;;1.57;;
6832;SDS011;3454;42.654;23.378;2023-04-03T02:29:32;2.17;;;1.53;;
6832;SDS011;3454;42.654;23.378;2023-04-03T02:31:58;4.27;;;2.43;;
6832;SDS011;3454;42.654;23.378;2023-04-03T02:34:23;3.43;;;1.73;;
6832;SDS011;3454;42.654;23.378;2023-04-03T02:36:49;2.13;;;1.10;;
6832;SDS011;3454;42.654;23.378;2023-04-03T02:39:14;2.60;;;1.23;;
6832;SDS011;3454;42.654;23.378;2023-04-03T02:41:40;2.70;;;1.30;;
6832;SDS011;3454;42.654;23.378;2023-04-03T02:44:06;5.00;;;1.87;;
6832;SDS011;3454;42.654;23.378;2023-04-03T02:46:33;1.67;;;1.30;;
6832;SDS011;3454;42.654;23.378;2023-04-03T02:48:59;2.40;;;1.70;;
6832;SDS011;3454;42.654;23.378;2023-04-03T02:51:24;5.13;;;1.23;;
6832;SDS011;3454;42.654;23.378;2023-04-03T02:53:50;4.93;;;1.60;;
6832;SDS011;3454;42.654;23.378;2023-04-03T02:56:16;1.97;;;1.77;;
6832;SDS011;3454;42.654;23.378;2023-04-03T02:58:43;1.73;;;1.50;;
6832;SDS011;3454;42.654;23.378;2023-04-03T03:01:09;2.70;;;1.40;;
6832;SDS011;3454;42.654;23.378;2023-04-03T03:03:34;1.47;;;1.37;;
6832;SDS011;3454;42.654;23.378;2023-04-03T03:06:04;2.63;;;1.50;;
6832;SDS011;3454;42.654;23.378;2023-04-03T03:08:31;4.30;;;1.83;;
6832;SDS011;3454;42.654;23.378;2023-04-03T03:10:56;3.30;;;1.90;;
6832;SDS011;3454;42.654;23.378;2023-04-03T03:13:21;4.73;;;1.80;;
6832;SDS011;3454;42.654;23.378;2023-04-03T03:15:47;1.60;;;1.40;;
6832;SDS011;3454;42.654;23.378;2023-04-03T03:18:13;4.23;;;1.57;;
6832;SDS011;3454;42.654;23.378;2023-04-03T03:20:39;2.57;;;1.70;;
6832;SDS011;3454;42.654;23.378;2023-04-03T03:23:04;6.57;;;2.37;;
6832;SDS011;3454;42.654;23.378;2023-04-03T03:25:30;2.50;;;1.80;;
6832;SDS011;3454;42.654;23.378;2023-04-03T03:27:56;3.97;;;1.90;;
6832;SDS011;3454;42.654;23.378;2023-04-03T03:30:21;5.97;;;1.70;;
6832;SDS011;3454;42.654;23.378;2023-04-03T03:32:46;2.93;;;1.73;;
6832;SDS011;3454;42.654;23.378;2023-04-03T03:35:12;3.40;;;1.93;;
6832;SDS011;3454;42.654;23.378;2023-04-03T03:37:37;4.37;;;1.93;;
6832;SDS011;3454;42.654;23.378;2023-04-03T03:40:03;8.33;;;1.63;;
6832;SDS011;3454;42.654;23.378;2023-04-03T03:42:29;4.73;;;1.50;;
6832;SDS011;3454;42.654;23.378;2023-04-03T03:44:54;2.60;;;1.40;;
6832;SDS011;3454;42.654;23.378;2023-04-03T03:47:19;3.00;;;1.60;;
6832;SDS011;3454;42.654;23.378;2023-04-03T03:49:45;3.60;;;1.87;;
6832;SDS011;3454;42.654;23.378;2023-04-03T03:52:10;3.27;;;1.60;;
6832;SDS011;3454;42.654;23.378;2023-04-03T03:54:54;3.23;;;2.30;;
6832;SDS011;3454;42.654;23.378;2023-04-03T03:57:20;7.07;;;2.30;;
6832;SDS011;3454;42.654;23.378;2023-04-03T03:59:45;3.73;;;1.77;;
6832;SDS011;3454;42.654;23.378;2023-04-03T04:02:12;2.97;;;1.27;;
6832;SDS011;3454;42.654;23.378;2023-04-03T04:04:37;2.83;;;1.20;;
6832;SDS011;3454;42.654;23.378;2023-04-03T04:07:03;3.40;;;1.30;;
6832;SDS011;3454;42.654;23.378;2023-04-03T04:09:29;6.13;;;1.57;;
6832;SDS011;3454;42.654;23.378;2023-04-03T04:11:54;2.60;;;1.30;;
6832;SDS011;3454;42.654;23.378;2023-04-03T04:14:20;3.00;;;1.47;;
6832;SDS011;3454;42.654;23.378;2023-04-03T04:16:46;1.67;;;1.57;;
6832;SDS011;3454;42.654;23.378;2023-04-03T04:19:12;3.07;;;1.40;;
6832;SDS011;3454;42.654;23.378;2023-04-03T04:21:38;1.97;;;1.70;;
6832;SDS011;3454;42.654;23.378;2023-04-03T04:24:04;2.40;;;1.50;;
6832;SDS011;3454;42.654;23.378;2023-04-03T04:26:30;2.20;;;1.67;;
6832;SDS011;3454;42.654;23.378;2023-04-03T04:28:56;5.87;;;2.17;;
6832;SDS011;3454;42.654;23.378;2023-04-03T04:31:21;3.00;;;1.80;;
6832;SDS011;3454;42.654;23.378;2023-04-03T04:33:47;4.17;;;2.13;;
6832;SDS011;3454;42.654;23.378;2023-04-03T04:36:13;4.23;;;1.87;;
6832;SDS011;3454;42.654;23.378;2023-04-03T04:38:40;4.70;;;2.30;;
6832;SDS011;3454;42.654;23.378;2023-04-03T04:41:05;3.23;;;2.10;;
6832;SDS011;3454;42.654;23.378;2023-04-03T04:43:31;8.57;;;2.73;;
6832;SDS011;3454;42.654;23.378;2023-04-03T04:46:07;7.00;;;2.80;;
6832;SDS011;3454;42.654;23.378;2023-04-03T04:48:34;22.53;;;20.13;;
6832;SDS011;3454;42.654;23.378;2023-04-03T04:51:01;8.03;;;2.90;;
6832;SDS011;3454;42.654;23.378;2023-04-03T04:53:27;8.27;;;3.17;;
6832;SDS011;3454;42.654;23.378;2023-04-03T04:55:52;6.70;;;2.20;;
6832;SDS011;3454;42.654;23.378;2023-04-03T04:58:18;4.80;;;2.17;;
6832;SDS011;3454;42.654;23.378;2023-04-03T05:00:44;8.63;;;6.20;;
6832;SDS011;3454;42.654;23.378;2023-04-03T05:03:10;6.07;;;2.60;;
6832;SDS011;3454;42.654;23.378;2023-04-03T05:05:36;6.10;;;2.53;;
6832;SDS011;3454;42.654;23.378;2023-04-03T05:08:02;10.60;;;2.67;;
6832;SDS011;3454;42.654;23.378;2023-04-03T05:10:29;6.70;;;2.80;;
6832;SDS011;3454;42.654;23.378;2023-04-03T05:12:56;8.93;;;2.90;;
6832;SDS011;3454;42.654;23.378;2023-04-03T05:15:21;9.63;;;3.43;;
6832;SDS011;3454;42.654;23.378;2023-04-03T05:17:47;6.97;;;3.17;;
6832;SDS011;3454;42.654;23.378;2023-04-03T05:20:12;5.77;;;2.53;;
6832;SDS011;3454;42.654;23.378;2023-04-03T05:22:38;4.43;;;2.67;;
6832;SDS011;3454;42.654;23.378;2023-04-03T05:25:04;5.33;;;2.53;;
6832;SDS011;3454;42.654;23.378;2023-04-03T05:27:30;4.13;;;2.20;;
6832;SDS011;3454;42.654;23.378;2023-04-03T05:29:55;6.80;;;2.97;;
6832;SDS011;3454;42.654;23.378;2023-04-03T05:32:22;4.97;;;2.40;;
6832;SDS011;3454;42.654;23.378;2023-04-03T05:34:48;6.80;;;2.70;;
6832;SDS011;3454;42.654;23.378;2023-04-03T05:37:13;4.73;;;1.80;;
6832;SDS011;3454;42.654;23.378;2023-04-03T05:39:39;3.93;;;2.03;;
6832;SDS011;3454;42.654;23.378;2023-04-03T05:42:06;4.70;;;2.97;;
6832;SDS011;3454;42.654;23.378;2023-04-03T05:44:32;5.37;;;2.77;;
6832;SDS011;3454;42.654;23.378;2023-04-03T05:46:58;8.43;;;4.47;;
6832;SDS011;3454;42.654;23.378;2023-04-03T05:49:23;11.27;;;4.50;;
6832;SDS011;3454;42.654;23.378;2023-04-03T05:51:49;12.00;;;4.67;;
6832;SDS011;3454;42.654;23.378;2023-04-03T05:54:26;7.57;;;4.40;;
6832;SDS011;3454;42.654;23.378;2023-04-03T05:56:53;15.33;;;4.80;;
6832;SDS011;3454;42.654;23.378;2023-04-03T05:59:19;14.27;;;4.67;;
6832;SDS011;3454;42.654;23.378;2023-04-03T06:01:45;12.70;;;4.20;;
6832;SDS011;3454;42.654;23.378;2023-04-03T06:04:11;9.27;;;4.97;;
6832;SDS011;3454;42.654;23.378;2023-04-03T06:06:48;10.90;;;5.20;;
6832;SDS011;3454;42.654;23.378;2023-04-03T06:09:23;16.97;;;7.37;;
6832;SDS011;3454;42.654;23.378;2023-04-03T06:11:49;12.30;;;7.33;;
6832;SDS011;3454;42.654;23.378;2023-04-03T06:14:15;18.57;;;7.03;;
6832;SDS011;3454;42.654;23.378;2023-04-03T06:16:41;12.83;;;5.20;;
6832;SDS011;3454;42.654;23.378;2023-04-03T06:19:07;12.27;;;4.60;;
6832;SDS011;3454;42.654;23.378;2023-04-03T06:21:33;14.13;;;4.57;;
6832;SDS011;3454;42.654;23.378;2023-04-03T06:24:00;11.30;;;4.77;;
6832;SDS011;3454;42.654;23.378;2023-04-03T06:26:27;11.03;;;4.90;;
6832;SDS011;3454;42.654;23.378;2023-04-03T06:28:53;7.03;;;5.37;;
6832;SDS011;3454;42.654;23.378;2023-04-03T06:31:18;13.97;;;6.10;;
6832;SDS011;3454;42.654;23.378;2023-04-03T06:33:44;19.53;;;9.57;;
6832;SDS011;3454;42.654;23.378;2023-04-03T06:36:10;19.93;;;9.70;;
6832;SDS011;3454;42.654;23.378;2023-04-03T06:38:36;18.10;;;10.73;;
6832;SDS011;3454;42.654;23.378;2023-04-03T06:41:02;14.40;;;8.60;;
6832;SDS011;3454;42.654;23.378;2023-04-03T06:43:27;17.07;;;7.77;;
6832;SDS011;3454;42.654;23.378;2023-04-03T06:45:53;13.13;;;8.97;;
6832;SDS011;3454;42.654;23.378;2023-04-03T06:48:18;16.47;;;9.03;;
6832;SDS011;3454;42.654;23.378;2023-04-03T06:50:44;12.30;;;7.40;;
6832;SDS011;3454;42.654;23.378;2023-04-03T06:53:09;11.40;;;5.07;;
6832;SDS011;3454;42.654;23.378;2023-04-03T06:55:35;12.63;;;5.47;;
6832;SDS011;3454;42.654;23.378;2023-04-03T06:58:02;9.30;;;4.80;;
6832;SDS011;3454;42.654;23.378;2023-04-03T07:00:28;10.53;;;4.77;;
6832;SDS011;3454;42.654;23.378;2023-04-03T07:02:55;10.20;;;5.33;;
6832;SDS011;3454;42.654;23.378;2023-04-03T07:05:21;16.47;;;5.73;;
6832;SDS011;3454;42.654;23.378;2023-04-03T07:07:46;10.40;;;4.10;;
6832;SDS011;3454;42.654;23.378;2023-04-03T07:10:12;11.20;;;4.43;;
6832;SDS011;3454;42.654;23.378;2023-04-03T07:12:37;10.97;;;4.43;;
6832;SDS011;3454;42.654;23.378;2023-04-03T07:15:04;10.43;;;4.70;;
6832;SDS011;3454;42.654;23.378;2023-04-03T07:17:30;9.10;;;4.23;;
6832;SDS011;3454;42.654;23.378;2023-04-03T07:19:57;7.90;;;5.13;;
6832;SDS011;3454;42.654;23.378;2023-04-03T07:22:22;13.00;;;5.30;;
6832;SDS011;3454;42.654;23.378;2023-04-03T07:24:48;14.67;;;5.97;;
6832;SDS011;3454;42.654;23.378;2023-04-03T07:27:13;8.40;;;6.20;;
6832;SDS011;3454;42.654;23.378;2023-04-03T07:29:39;11.90;;;6.20;;
6832;SDS011;3454;42.654;23.378;2023-04-03T07:32:05;22.07;;;8.50;;
6832;SDS011;3454;42.654;23.378;2023-04-03T07:34:31;15.57;;;9.13;;
6832;SDS011;3454;42.654;23.378;2023-04-03T07:36:57;20.03;;;9.33;;
6832;SDS011;3454;42.654;23.378;2023-04-03T07:39:24;19.03;;;9.50;;
6832;SDS011;3454;42.654;23.378;2023-04-03T07:41:49;17.07;;;8.87;;
6832;SDS011;3454;42.654;23.378;2023-04-03T07:44:15;20.00;;;9.60;;
6832;SDS011;3454;42.654;23.378;2023-04-03T07:46:41;20.87;;;10.33;;
6832;SDS011;3454;42.654;23.378;2023-04-03T07:49:07;19.37;;;10.20;;
6832;SDS011;3454;42.654;23.378;2023-04-03T07:51:32;22.10;;;11.17;;
6832;SDS011;3454;42.654;23.378;2023-04-03T07:53:58;20.87;;;12.43;;
6832;SDS011;3454;42.654;23.378;2023-04-03T07:56:23;19.90;;;11.07;;
6832;SDS011;3454;42.654;23.378;2023-04-03T07:58:50;20.90;;;10.37;;
6832;SDS011;3454;42.654;23.378;2023-04-03T08:01:15;22.77;;;11.60;;
6832;SDS011;3454;42.654;23.378;2023-04-03T08:03:41;22.20;;;11.63;;
6832;SDS011;3454;42.654;23.378;2023-04-03T08:06:07;21.50;;;11.13;;
6832;SDS011;3454;42.654;23.378;2023-04-03T08:08:33;24.87;;;12.07;;
6832;SDS011;3454;42.654;23.378;2023-04-03T08:11:05;17.20;;;10.83;;
6832;SDS011;3454;42.654;23.378;2023-04-03T08:13:33;23.73;;;10.93;;
6832;SDS011;3454;42.654;23.378;2023-04-03T08:16:06;18.17;;;10.53;;
6832;SDS011;3454;42.654;23.378;2023-04-03T08:18:34;20.03;;;10.47;;
6832;SDS011;3454;42.654;23.378;2023-04-03T08:21:00;21.53;;;10.93;;
6832;SDS011;3454;42.654;23.378;2023-04-03T08:23:26;19.83;;;11.30;;
6832;SDS011;3454;42.654;23.378;2023-04-03T08:25:51;19.60;;;11.33;;
6832;SDS011;3454;42.654;23.378;2023-04-03T08:28:17;19.13;;;10.80;;
6832;SDS011;3454;42.654;23.378;2023-04-03T08:30:42;20.47;;;11.30;;
6832;SDS011;3454;42.654;23.378;2023-04-03T08:33:09;20.40;;;11.23;;
6832;SDS011;3454;42.654;23.378;2023-04-03T08:35:38;17.60;;;11.73;;
6832;SDS011;3454;42.654;23.378;2023-04-03T08:38:05;20.27;;;11.60;;
6832;SDS011;3454;42.654;23.378;2023-04-03T08:40:31;25.40;;;12.00;;
6832;SDS011;3454;42.654;23.378;2023-04-03T08:43:15;29.47;;;12.63;;
6832;SDS011;3454;42.654;23.378;2023-04-03T08:46:02;21.70;;;13.10;;
6832;SDS011;3454;42.654;23.378;2023-04-03T08:48:37;29.33;;;12.50;;
6832;SDS011;3454;42.654;23.378;2023-04-03T08:51:24;24.47;;;12.33;;
6832;SDS011;3454;42.654;23.378;2023-04-03T08:56:17;23.17;;;11.10;;
6832;SDS011;3454;42.654;23.378;2023-04-03T08:58:50;16.97;;;10.83;;
6832;SDS011;3454;42.654;23.378;2023-04-03T09:01:23;15.90;;;10.03;;
6832;SDS011;3454;42.654;23.378;2023-04-03T09:04:05;17.83;;;8.87;;
6832;SDS011;3454;42.654;23.378;2023-04-03T09:06:36;13.30;;;8.33;;
6832;SDS011;3454;42.654;23.378;2023-04-03T09:12:06;23.90;;;8.77;;
6832;SDS011;3454;42.654;23.378;2023-04-03T09:14:54;23.67;;;9.63;;
6832;SDS011;3454;42.654;23.378;2023-04-03T09:22:31;17.37;;;7.77;;
6832;SDS011;3454;42.654;23.378;2023-04-03T09:24:59;13.37;;;7.57;;
6832;SDS011;3454;42.654;23.378;2023-04-03T09:27:37;16.13;;;7.07;;
6832;SDS011;3454;42.654;23.378;2023-04-03T09:30:03;15.53;;;7.03;;
6832;SDS011;3454;42.654;23.378;2023-04-03T09:32:30;12.07;;;6.90;;
6832;SDS011;3454;42.654;23.378;2023-04-03T09:35:19;10.33;;;6.83;;
6832;SDS011;3454;42.654;23.378;2023-04-03T09:37:45;15.57;;;6.67;;
6832;SDS011;3454;42.654;23.378;2023-04-03T09:42:51;6.73;;;3.87;;
6832;SDS011;3454;42.654;23.378;2023-04-03T09:48:07;9.50;;;4.53;;
6832;SDS011;3454;42.654;23.378;2023-04-03T09:50:34;7.23;;;5.73;;
6832;SDS011;3454;42.654;23.378;2023-04-03T09:53:23;9.70;;;5.78;;
6832;SDS011;3454;42.654;23.378;2023-04-03T09:55:53;13.13;;;5.37;;
6832;SDS011;3454;42.654;23.378;2023-04-03T09:58:26;14.35;;;5.07;;
6832;SDS011;3454;42.654;23.378;2023-04-03T10:00:59;14.37;;;5.80;;
6832;SDS011;3454;42.654;23.378;2023-04-03T10:03:27;9.27;;;5.45;;
6832;SDS011;3454;42.654;23.378;2023-04-03T10:05:59;12.87;;;5.50;;
6832;SDS011;3454;42.654;23.378;2023-04-03T10:08:27;11.88;;;5.93;;
6832;SDS011;3454;42.654;23.378;2023-04-03T10:11:07;7.50;;;4.73;;
6832;SDS011;3454;42.654;23.378;2023-04-03T10:13:35;8.00;;;5.03;;
6832;SDS011;3454;42.654;23.378;2023-04-03T10:16:03;9.50;;;5.57;;
6832;SDS011;3454;42.654;23.378;2023-04-03T10:18:44;7.77;;;4.47;;
6832;SDS011;3454;42.654;23.378;2023-04-03T10:34:45;5.77;;;3.10;;
6832;SDS011;3454;42.654;23.378;2023-04-03T10:37:22;5.13;;;2.70;;
6832;SDS011;3454;42.654;23.378;2023-04-03T10:40:19;4.20;;;2.20;;
6832;SDS011;3454;42.654;23.378;2023-04-03T10:51:36;4.63;;;2.47;;
6832;SDS011;3454;42.654;23.378;2023-04-03T10:56:56;3.93;;;2.53;;
6832;SDS011;3454;42.654;23.378;2023-04-03T10:59:36;3.60;;;2.40;;
6832;SDS011;3454;42.654;23.378;2023-04-03T11:05:21;3.17;;;2.00;;
6832;SDS011;3454;42.654;23.378;2023-04-03T11:08:26;2.50;;;2.17;;
6832;SDS011;3454;42.654;23.378;2023-04-03T11:10:59;3.57;;;2.30;;
6832;SDS011;3454;42.654;23.378;2023-04-03T11:13:34;5.00;;;2.23;;
6832;SDS011;3454;42.654;23.378;2023-04-03T11:16:05;6.07;;;2.50;;
6832;SDS011;3454;42.654;23.378;2023-04-03T11:18:36;2.70;;;2.30;;
6832;SDS011;3454;42.654;23.378;2023-04-03T11:21:12;3.53;;;2.27;;
6832;SDS011;3454;42.654;23.378;2023-04-03T11:23:39;3.97;;;2.40;;
6832;SDS011;3454;42.654;23.378;2023-04-03T11:28:37;4.63;;;2.50;;
6832;SDS011;3454;42.654;23.378;2023-04-03T11:31:23;2.90;;;2.40;;
6832;SDS011;3454;42.654;23.378;2023-04-03T11:36:32;4.27;;;2.60;;
6832;SDS011;3454;42.654;23.378;2023-04-03T11:39:17;4.57;;;2.47;;
6832;SDS011;3454;42.654;23.378;2023-04-03T11:41:48;6.23;;;2.23;;
6832;SDS011;3454;42.654;23.378;2023-04-03T11:44:56;2.93;;;2.17;;
6832;SDS011;3454;42.654;23.378;2023-04-03T11:47:03;5.00;;;2.50;;
6832;SDS011;3454;42.654;23.378;2023-04-03T11:49:52;3.83;;;2.87;;
6832;SDS011;3454;42.654;23.378;2023-04-03T11:55:35;3.53;;;2.30;;
6832;SDS011;3454;42.654;23.378;2023-04-03T12:29:52;3.67;;;1.70;;
6832;SDS011;3454;42.654;23.378;2023-04-03T12:32:41;5.13;;;2.57;;
6832;SDS011;3454;42.654;23.378;2023-04-03T12:35:30;3.53;;;2.30;;
6832;SDS011;3454;42.654;23.378;2023-04-03T12:46:26;2.90;;;2.30;;
6832;SDS011;3454;42.654;23.378;2023-04-03T12:49:00;3.00;;;2.40;;
6832;SDS011;3454;42.654;23.378;2023-04-03T12:51:34;6.67;;;3.07;;
6832;SDS011;3454;42.654;23.378;2023-04-03T12:54:22;5.77;;;3.03;;
6832;SDS011;3454;42.654;23.378;2023-04-03T12:57:17;6.53;;;3.00;;
6832;SDS011;3454;42.654;23.378;2023-04-03T12:59:42;8.20;;;3.20;;
6832;SDS011;3454;42.654;23.378;2023-04-03T13:02:32;7.23;;;3.27;;
6832;SDS011;3454;42.654;23.378;2023-04-03T13:04:59;6.87;;;3.43;;
6832;SDS011;3454;42.654;23.378;2023-04-03T13:07:33;3.63;;;3.10;;
6832;SDS011;3454;42.654;23.378;2023-04-03T13:12:35;5.87;;;3.10;;
6832;SDS011;3454;42.654;23.378;2023-04-03T13:15:16;5.47;;;3.27;;
6832;SDS011;3454;42.654;23.378;2023-04-03T13:17:44;4.83;;;3.87;;
6832;SDS011;3454;42.654;23.378;2023-04-03T13:20:31;5.47;;;4.40;;
6832;SDS011;3454;42.654;23.378;2023-04-03T13:23:04;6.30;;;4.40;;
6832;SDS011;3454;42.654;23.378;2023-04-03T13:25:34;5.20;;;4.70;;
6832;SDS011;3454;42.654;23.378;2023-04-03T13:28:02;7.43;;;6.07;;
6832;SDS011;3454;42.654;23.378;2023-04-03T13:30:32;6.87;;;5.13;;
6832;SDS011;3454;42.654;23.378;2023-04-03T13:33:02;8.00;;;4.47;;
6832;SDS011;3454;42.654;23.378;2023-04-03T13:38:00;5.03;;;4.10;;
6832;SDS011;3454;42.654;23.378;2023-04-03T13:40:27;13.63;;;7.67;;
6832;SDS011;3454;42.654;23.378;2023-04-03T13:43:04;11.43;;;6.60;;
6832;SDS011;3454;42.654;23.378;2023-04-03T13:45:52;5.80;;;5.03;;
6832;SDS011;3454;42.654;23.378;2023-04-03T13:48:34;5.77;;;4.90;;
6832;SDS011;3454;42.654;23.378;2023-04-03T13:51:24;5.50;;;4.53;;
6832;SDS011;3454;42.654;23.378;2023-04-03T13:53:59;6.20;;;4.50;;
6832;SDS011;3454;42.654;23.378;2023-04-03T13:59:03;7.50;;;4.30;;
6832;SDS011;3454;42.654;23.378;2023-04-03T14:01:34;6.90;;;4.10;;
6832;SDS011;3454;42.654;23.378;2023-04-03T14:04:16;4.17;;;3.07;;
6832;SDS011;3454;42.654;23.378;2023-04-03T14:06:44;5.37;;;3.50;;
6832;SDS011;3454;42.654;23.378;2023-04-03T14:09:10;4.60;;;3.57;;
6832;SDS011;3454;42.654;23.378;2023-04-03T14:11:36;3.77;;;3.33;;
6832;SDS011;3454;42.654;23.378;2023-04-03T14:14:03;4.27;;;3.60;;
6832;SDS011;3454;42.654;23.378;2023-04-03T14:16:37;3.60;;;3.07;;
6832;SDS011;3454;42.654;23.378;2023-04-03T14:19:06;4.40;;;3.47;;
6832;SDS011;3454;42.654;23.378;2023-04-03T14:21:31;4.97;;;3.77;;
6832;SDS011;3454;42.654;23.378;2023-04-03T14:23:57;7.87;;;4.00;;
6832;SDS011;3454;42.654;23.378;2023-04-03T14:26:23;4.30;;;3.40;;
6832;SDS011;3454;42.654;23.378;2023-04-03T14:28:52;3.87;;;3.47;;
6832;SDS011;3454;42.654;23.378;2023-04-03T14:31:19;5.93;;;3.77;;
6832;SDS011;3454;42.654;23.378;2023-04-03T14:33:46;7.47;;;3.67;;
6832;SDS011;3454;42.654;23.378;2023-04-03T14:36:17;6.73;;;3.70;;
6832;SDS011;3454;42.654;23.378;2023-04-03T14:38:47;6.23;;;3.97;;
6832;SDS011;3454;42.654;23.378;2023-04-03T14:41:16;4.73;;;3.07;;
6832;SDS011;3454;42.654;23.378;2023-04-03T14:43:44;5.67;;;3.27;;
6832;SDS011;3454;42.654;23.378;2023-04-03T14:46:17;4.47;;;3.00;;
6832;SDS011;3454;42.654;23.378;2023-04-03T14:48:51;3.23;;;2.47;;
6832;SDS011;3454;42.654;23.378;2023-04-03T14:51:16;3.90;;;2.90;;
6832;SDS011;3454;42.654;23.378;2023-04-03T14:53:42;4.90;;;3.27;;
6832;SDS011;3454;42.654;23.378;2023-04-03T14:56:17;3.60;;;2.40;;
6832;SDS011;3454;42.654;23.378;2023-04-03T14:58:42;3.60;;;2.37;;
6832;SDS011;3454;42.654;23.378;2023-04-03T15:01:09;4.97;;;2.20;;
6832;SDS011;3454;42.654;23.378;2023-04-03T15:03:37;4.10;;;2.30;;
6832;SDS011;3454;42.654;23.378;2023-04-03T15:06:03;4.97;;;2.57;;
6832;SDS011;3454;42.654;23.378;2023-04-03T15:08:28;2.87;;;2.50;;
6832;SDS011;3454;42.654;23.378;2023-04-03T15:10:54;3.37;;;2.43;;
6832;SDS011;3454;42.654;23.378;2023-04-03T15:13:21;2.50;;;2.10;;
6832;SDS011;3454;42.654;23.378;2023-04-03T15:15:47;2.50;;;2.20;;
6832;SDS011;3454;42.654;23.378;2023-04-03T15:18:23;2.20;;;2.00;;
6832;SDS011;3454;42.654;23.378;2023-04-03T15:20:53;3.37;;;2.50;;
6832;SDS011;3454;42.654;23.378;2023-04-03T15:23:20;5.23;;;2.70;;
6832;SDS011;3454;42.654;23.378;2023-04-03T15:25:51;5.03;;;2.10;;
6832;SDS011;3454;42.654;23.378;2023-04-03T15:30:57;2.67;;;2.20;;
6832;SDS011;3454;42.654;23.378;2023-04-03T15:33:23;5.40;;;1.97;;
6832;SDS011;3454;42.654;23.378;2023-04-03T15:35:50;2.95;;;2.08;;
6832;SDS011;3454;42.654;23.378;2023-04-03T15:38:15;2.90;;;1.92;;
6832;SDS011;3454;42.654;23.378;2023-04-03T15:40:41;3.03;;;2.15;;
6832;SDS011;3454;42.654;23.378;2023-04-03T15:43:07;1.75;;;1.60;;
6832;SDS011;3454;42.654;23.378;2023-04-03T15:45:33;2.97;;;1.70;;
6832;SDS011;3454;42.654;23.378;2023-04-03T15:48:00;4.50;;;2.70;;
6832;SDS011;3454;42.654;23.378;2023-04-03T15:50:27;9.38;;;5.38;;
6832;SDS011;3454;42.654;23.378;2023-04-03T15:52:53;11.52;;;5.50;;
6832;SDS011;3454;42.654;23.378;2023-04-03T15:55:23;12.43;;;6.00;;
6832;SDS011;3454;42.654;23.378;2023-04-03T15:57:50;12.52;;;7.07;;
6832;SDS011;3454;42.654;23.378;2023-04-03T16:00:17;14.45;;;7.60;;
6832;SDS011;3454;42.654;23.378;2023-04-03T16:02:43;4.75;;;3.45;;
6832;SDS011;3454;42.654;23.378;2023-04-03T16:05:10;2.13;;;1.92;;
6832;SDS011;3454;42.654;23.378;2023-04-03T16:07:40;3.83;;;2.47;;
6832;SDS011;3454;42.654;23.378;2023-04-03T16:10:06;4.18;;;2.30;;
6832;SDS011;3454;42.654;23.378;2023-04-03T16:12:32;4.38;;;2.78;;
6832;SDS011;3454;42.654;23.378;2023-04-03T16:14:58;3.58;;;2.92;;
6832;SDS011;3454;42.654;23.378;2023-04-03T16:17:23;4.53;;;2.90;;
6832;SDS011;3454;42.654;23.378;2023-04-03T16:19:51;2.70;;;2.50;;
6832;SDS011;3454;42.654;23.378;2023-04-03T16:22:17;3.67;;;2.70;;
6832;SDS011;3454;42.654;23.378;2023-04-03T16:24:42;3.73;;;2.67;;
6832;SDS011;3454;42.654;23.378;2023-04-03T16:27:08;4.17;;;2.93;;
6832;SDS011;3454;42.654;23.378;2023-04-03T16:29:33;4.03;;;3.10;;
6832;SDS011;3454;42.654;23.378;2023-04-03T16:31:59;3.93;;;3.40;;
6832;SDS011;3454;42.654;23.378;2023-04-03T16:34:24;6.27;;;3.60;;
6832;SDS011;3454;42.654;23.378;2023-04-03T16:36:51;4.07;;;3.27;;
6832;SDS011;3454;42.654;23.378;2023-04-03T16:39:17;5.70;;;3.47;;
6832;SDS011;3454;42.654;23.378;2023-04-03T16:41:43;4.97;;;3.73;;
6832;SDS011;3454;42.654;23.378;2023-04-03T16:44:09;5.10;;;3.10;;
6832;SDS011;3454;42.654;23.378;2023-04-03T16:46:34;4.47;;;3.30;;
6832;SDS011;3454;42.654;23.378;2023-04-03T16:49:06;4.30;;;3.90;;
6832;SDS011;3454;42.654;23.378;2023-04-03T16:51:32;5.17;;;3.13;;
6832;SDS011;3454;42.654;23.378;2023-04-03T16:53:57;4.67;;;3.40;;
6832;SDS011;3454;42.654;23.378;2023-04-03T16:56:23;4.93;;;3.63;;